Time;durP1;ratioP1;P1;durP2;ratioP2;P2;SDS_P1;SDS_P2;PMS_P1;PMS_P2;Temp;Humidity;BMP_temperature;BMP_pressure;BME280_temperature;BME280_humidity;BME280_pressure;Samples;Min_cycle;Max_cycle;Signal;HPM_P1;HPM_P2
2022/11/04 00:01:26;;;;;;;39.20;22.40;;;11.00;99.90;;;;;;4937980;29;20476;-70
2022/11/04 00:03:52;;;;;;;43.92;22.58;;;11.00;99.90;;;;;;4922075;29;20110;-70
2022/11/04 00:06:19;;;;;;;45.10;23.92;;;11.00;99.90;;;;;;4938773;29;20027;-70
2022/11/04 00:08:56;;;;;;;42.35;22.75;;;11.00;99.90;;;;;;4938402;29;20439;-71
2022/11/04 00:14:09;;;;;;;39.83;23.20;;;11.00;99.90;;;;;;4938708;29;20495;-70
2022/11/04 00:19:19;;;;;;;38.75;22.58;;;11.00;99.90;;;;;;4938478;29;20090;-71
2022/11/04 00:29:55;;;;;;;39.47;22.90;;;11.00;99.90;;;;;;4938569;29;20038;-70
2022/11/04 00:35:07;;;;;;;39.72;24.00;;;11.00;99.90;;;;;;4938344;29;20107;-71
2022/11/04 00:37:41;;;;;;;44.90;24.80;;;11.00;99.90;;;;;;4936895;29;20036;-70
2022/11/04 00:40:08;;;;;;;43.00;24.35;;;11.00;99.90;;;;;;4938254;29;20063;-70
2022/11/04 00:42:34;;;;;;;41.78;23.65;;;11.00;99.90;;;;;;4938075;29;20383;-71
2022/11/04 00:45:00;;;;;;;43.72;25.63;;;10.90;99.90;;;;;;4923343;29;20063;-71
2022/11/04 00:47:26;;;;;;;44.42;26.42;;;11.00;99.90;;;;;;4938660;29;20034;-70
2022/11/04 00:49:52;;;;;;;43.53;25.33;;;10.90;99.90;;;;;;4920733;29;20484;-70
2022/11/04 00:52:17;;;;;;;42.45;24.63;;;10.90;99.90;;;;;;4936630;29;20084;-70
2022/11/04 00:54:43;;;;;;;39.83;26.13;;;10.90;99.90;;;;;;4937795;29;20024;-70
2022/11/04 00:57:12;;;;;;;43.55;24.98;;;10.90;99.90;;;;;;4937828;29;20035;-70
2022/11/04 00:59:39;;;;;;;43.08;27.10;;;10.90;99.90;;;;;;4938687;29;20046;-71
2022/11/04 01:02:06;;;;;;;48.50;27.60;;;10.90;99.90;;;;;;4938737;29;20057;-70
2022/11/04 01:04:31;;;;;;;45.22;25.92;;;10.90;99.90;;;;;;4937779;29;20032;-70
2022/11/04 01:06:57;;;;;;;44.03;26.88;;;10.90;99.90;;;;;;4937922;29;20080;-70
2022/11/04 01:09:23;;;;;;;46.00;28.58;;;10.90;99.90;;;;;;4937931;29;20031;-70
2022/11/04 01:11:49;;;;;;;46.75;28.60;;;10.80;99.90;;;;;;4937367;29;20492;-70
2022/11/04 01:14:15;;;;;;;48.17;28.85;;;10.80;99.90;;;;;;4937885;29;20065;-70
2022/11/04 01:16:40;;;;;;;47.40;27.83;;;10.80;99.90;;;;;;4937131;29;20051;-70
2022/11/04 01:19:06;;;;;;;49.30;29.10;;;10.80;99.90;;;;;;4937273;29;20034;-70
2022/11/04 01:21:32;;;;;;;46.13;28.40;;;10.80;99.90;;;;;;4935838;29;20035;-70
2022/11/04 01:23:58;;;;;;;48.15;29.15;;;10.80;99.90;;;;;;4936132;29;20110;-70
2022/11/04 01:26:25;;;;;;;49.72;29.52;;;10.80;99.90;;;;;;4936299;29;20477;-70
2022/11/04 01:28:53;;;;;;;48.28;28.77;;;10.80;99.90;;;;;;4937257;29;20023;-70
2022/11/04 01:31:22;;;;;;;48.13;29.30;;;10.80;99.90;;;;;;4937313;29;20091;-70
2022/11/04 01:33:48;;;;;;;54.45;29.70;;;10.80;99.90;;;;;;4937158;29;20361;-70
2022/11/04 01:36:14;;;;;;;54.35;30.30;;;10.80;99.90;;;;;;4936122;29;20036;-70
2022/11/04 01:38:40;;;;;;;50.83;29.70;;;10.80;99.90;;;;;;4937355;29;20079;-71
2022/11/04 01:41:07;;;;;;;51.88;31.30;;;10.80;99.90;;;;;;4937566;29;20067;-70
2022/11/04 01:43:50;;;;;;;49.65;30.30;;;10.80;99.90;;;;;;4936831;29;20114;-70
2022/11/04 01:46:26;;;;;;;54.67;31.92;;;10.80;99.90;;;;;;4937898;29;20067;-70
2022/11/04 01:48:58;;;;;;;54.85;32.35;;;10.80;99.90;;;;;;4920408;29;20139;-70
2022/11/04 01:51:25;;;;;;;51.15;30.52;;;10.80;99.90;;;;;;4937515;29;20031;-70
2022/11/04 01:53:54;;;;;;;51.72;31.40;;;10.80;99.90;;;;;;4936694;29;20027;-70
2022/11/04 01:56:20;;;;;;;51.38;31.50;;;10.80;99.90;;;;;;4919827;29;20031;-70
2022/11/04 01:58:50;;;;;;;58.08;31.33;;;10.80;99.90;;;;;;4936872;29;20032;-70
2022/11/04 02:01:16;;;;;;;52.90;31.15;;;10.80;99.90;;;;;;4935559;29;20042;-70
2022/11/04 02:03:50;;;;;;;54.72;33.13;;;10.80;99.90;;;;;;4936546;29;20027;-70
2022/11/04 02:06:18;;;;;;;54.83;32.00;;;10.90;99.90;;;;;;4935336;29;20126;-70
2022/11/04 02:08:45;;;;;;;56.17;32.40;;;10.80;99.90;;;;;;4936326;29;20036;-70
2022/11/04 02:12:48;;;;;;;56.42;32.20;;;10.80;99.90;;;;;;4935099;29;20028;-70
2022/11/04 02:13:57;;;;;;;53.83;31.15;;;10.80;99.90;;;;;;4936370;29;20087;-70
2022/11/04 02:16:34;;;;;;;55.05;30.95;;;10.80;99.90;;;;;;4936702;29;20452;-70
2022/11/04 02:19:30;;;;;;;50.90;31.70;;;10.80;99.90;;;;;;4936309;29;20484;-70
2022/11/04 02:21:56;;;;;;;54.33;32.70;;;10.80;99.90;;;;;;4900444;29;20039;-70
2022/11/04 02:24:46;;;;;;;55.70;32.60;;;10.80;99.90;;;;;;4936576;29;20024;-70
2022/11/04 02:27:29;;;;;;;53.50;31.98;;;10.80;99.90;;;;;;4935817;29;20028;-71
2022/11/04 02:30:04;;;;;;;57.55;32.17;;;10.80;99.90;;;;;;4936675;29;20023;-70
2022/11/04 02:33:08;;;;;;;52.35;33.55;;;10.80;99.90;;;;;;4935415;29;20433;-70
2022/11/04 02:35:40;;;;;;;52.83;31.17;;;10.80;99.90;;;;;;4901631;29;20092;-70
2022/11/04 02:38:24;;;;;;;52.55;31.67;;;10.80;99.90;;;;;;4940049;29;20028;-70
2022/11/04 02:41:06;;;;;;;57.70;32.88;;;10.80;99.90;;;;;;4940572;29;20027;-72
2022/11/04 02:43:56;;;;;;;53.13;32.75;;;10.80;99.90;;;;;;4940306;29;20114;-70
2022/11/04 02:46:24;;;;;;;56.00;31.77;;;10.70;99.90;;;;;;4940419;29;20054;-70
2022/11/04 02:49:00;;;;;;;52.40;31.63;;;10.80;99.90;;;;;;4939972;29;20130;-70
2022/11/04 02:51:36;;;;;;;54.50;32.38;;;10.80;99.90;;;;;;4940173;29;20071;-70
2022/11/04 02:54:10;;;;;;;51.95;31.23;;;10.80;99.90;;;;;;4940451;29;20058;-70
2022/11/04 02:56:50;;;;;;;54.75;31.92;;;10.80;99.90;;;;;;4925501;29;20377;-71
2022/11/04 02:59:30;;;;;;;53.75;32.28;;;10.80;99.90;;;;;;4941510;29;20058;-70
2022/11/04 03:01:59;;;;;;;55.75;31.80;;;10.70;99.90;;;;;;4940853;29;20468;-70
2022/11/04 03:04:29;;;;;;;54.97;33.03;;;10.80;99.90;;;;;;4939110;29;20028;-70
2022/11/04 03:06:57;;;;;;;52.78;31.17;;;10.80;99.90;;;;;;4939458;29;20090;-70
2022/11/04 03:09:26;;;;;;;49.50;31.83;;;10.80;99.90;;;;;;4940347;29;20032;-71
2022/11/04 03:11:57;;;;;;;58.13;33.58;;;10.80;99.90;;;;;;4940114;29;20027;-71
2022/11/04 03:14:34;;;;;;;55.20;32.88;;;10.80;99.90;;;;;;4940358;29;20392;-70
2022/11/04 03:17:05;;;;;;;56.03;32.30;;;10.80;99.90;;;;;;4938668;29;20033;-70
2022/11/04 03:19:39;;;;;;;53.28;32.30;;;10.80;99.90;;;;;;4938832;29;20040;-70
2022/11/04 03:22:19;;;;;;;53.45;31.38;;;10.80;99.90;;;;;;4939845;29;20480;-70
2022/11/04 03:24:46;;;;;;;60.10;34.65;;;10.80;99.90;;;;;;4938372;29;20024;-71
2022/11/04 03:27:22;;;;;;;60.42;33.30;;;10.80;99.90;;;;;;4939216;29;20093;-70
2022/11/04 03:29:47;;;;;;;58.65;33.75;;;10.80;99.90;;;;;;4938669;29;20054;-70
2022/11/04 03:32:22;;;;;;;60.63;33.88;;;10.90;99.90;;;;;;4922308;29;20472;-70
2022/11/04 03:34:49;;;;;;;57.08;32.78;;;10.90;99.90;;;;;;4922203;29;20088;-70
2022/11/04 03:37:14;;;;;;;59.90;34.42;;;10.90;99.90;;;;;;4939220;29;20104;-71
2022/11/04 03:39:40;;;;;;;62.25;34.58;;;10.90;99.90;;;;;;4939489;29;20114;-70
2022/11/04 03:42:42;;;;;;;58.75;34.42;;;10.90;99.90;;;;;;4921894;29;20031;-70
2022/11/04 03:45:01;;;;;;;57.88;34.38;;;10.90;99.90;;;;;;4934913;29;20036;-70
2022/11/04 03:47:29;;;;;;;60.13;34.22;;;10.90;99.90;;;;;;4938201;29;20489;-70
2022/11/04 03:50:14;;;;;;;53.55;33.67;;;10.90;99.90;;;;;;4938889;29;20047;-70
2022/11/04 03:52:40;;;;;;;61.05;34.45;;;10.90;99.90;;;;;;4921492;29;20035;-70
2022/11/04 03:55:07;;;;;;;58.40;34.53;;;10.90;99.90;;;;;;4937771;29;20064;-70
2022/11/04 03:57:51;;;;;;;57.72;32.78;;;10.90;99.90;;;;;;4938884;29;20036;-70
2022/11/04 04:00:22;;;;;;;59.15;33.47;;;10.90;99.90;;;;;;4938804;29;20035;-70
2022/11/04 04:03:00;;;;;;;60.50;33.17;;;10.90;99.90;;;;;;4938866;29;20428;-70
2022/11/04 04:05:36;;;;;;;60.25;33.17;;;11.00;99.90;;;;;;4938840;29;20028;-70
2022/11/04 04:08:18;;;;;;;63.70;34.92;;;10.90;99.90;;;;;;4938512;29;20047;-70
2022/11/04 04:11:29;;;;;;;61.53;33.83;;;10.90;99.90;;;;;;4938489;29;20055;-70
2022/11/04 04:14:01;;;;;;;61.45;34.25;;;10.90;99.90;;;;;;4938585;29;20028;-70
2022/11/04 04:16:44;;;;;;;65.10;34.53;;;10.90;99.90;;;;;;4922018;29;20031;-70
2022/11/04 04:19:20;;;;;;;64.93;35.58;;;10.90;99.90;;;;;;4921832;29;20398;-70
2022/11/04 04:21:57;;;;;;;61.60;35.03;;;11.00;99.90;;;;;;4938143;29;20035;-70
2022/11/04 04:27:30;;;;;;;59.30;35.13;;;11.00;99.90;;;;;;4938377;29;20038;-70
2022/11/04 04:30:09;;;;;;;64.00;35.00;;;11.00;99.90;;;;;;4938320;29;20135;-70
2022/11/04 04:32:43;;;;;;;58.92;34.53;;;11.00;99.90;;;;;;4938582;29;20027;-70
2022/11/04 04:44:58;;;;;;;62.20;35.10;;;11.10;99.90;;;;;;4938089;29;20407;-70
2022/11/04 04:46:14;;;;;;;61.47;36.03;;;11.00;99.90;;;;;;4938055;29;20042;-70
2022/11/04 04:48:40;;;;;;;69.93;37.20;;;11.10;99.90;;;;;;4937645;29;20052;-70
2022/11/04 04:51:06;;;;;;;66.57;37.90;;;11.10;99.90;;;;;;4937853;29;20460;-70
2022/11/04 04:53:31;;;;;;;56.03;33.75;;;11.10;99.90;;;;;;4938107;29;20031;-70
2022/11/04 04:55:57;;;;;;;58.95;33.83;;;11.10;99.90;;;;;;4937441;29;20032;-70
2022/11/04 04:58:22;;;;;;;58.20;34.75;;;11.10;99.90;;;;;;4937904;29;20481;-70
2022/11/04 05:00:48;;;;;;;56.70;32.45;;;11.10;99.90;;;;;;4937665;29;20035;-70
2022/11/04 05:03:14;;;;;;;56.15;33.13;;;11.10;99.90;;;;;;4937702;29;20075;-70
2022/11/04 05:05:39;;;;;;;57.15;32.90;;;11.10;99.90;;;;;;4936131;29;20042;-70
2022/11/04 05:08:06;;;;;;;50.65;31.55;;;11.10;99.90;;;;;;4920699;29;20035;-75
2022/11/04 05:10:32;;;;;;;49.78;30.35;;;11.10;99.90;;;;;;4937477;29;20027;-73
2022/11/04 05:15:44;;;;;;;53.83;32.10;;;11.20;99.90;;;;;;4937626;29;20034;-73
2022/11/04 05:18:09;;;;;;;57.10;31.70;;;11.20;99.90;;;;;;4937419;29;20064;-73
2022/11/04 05:20:37;;;;;;;52.85;31.42;;;11.20;99.90;;;;;;4937071;29;20032;-72
2022/11/04 05:23:03;;;;;;;51.22;30.65;;;11.20;99.90;;;;;;4936592;29;20122;-69
2022/11/04 05:25:28;;;;;;;54.17;30.95;;;11.10;99.90;;;;;;4936897;29;20059;-68
2022/11/04 05:27:57;;;;;;;49.33;30.00;;;11.20;99.90;;;;;;4935988;29;20056;-68
2022/11/04 05:30:23;;;;;;;50.88;29.85;;;11.10;99.90;;;;;;4937418;29;20052;-70
2022/11/04 05:32:49;;;;;;;59.00;30.30;;;11.10;99.90;;;;;;4936803;29;20450;-68
2022/11/04 05:35:14;;;;;;;47.22;29.67;;;11.10;99.90;;;;;;4919888;29;20119;-70
2022/11/04 05:37:40;;;;;;;47.88;28.35;;;11.10;99.90;;;;;;4937172;29;20110;-70
2022/11/04 05:40:06;;;;;;;43.85;26.55;;;11.10;99.90;;;;;;4936921;29;20417;-70
2022/11/04 05:42:32;;;;;;;43.17;25.42;;;11.10;99.90;;;;;;4937074;29;20032;-69
2022/11/04 05:44:57;;;;;;;40.97;26.60;;;11.10;99.90;;;;;;4936950;29;20360;-68
2022/11/04 05:47:23;;;;;;;45.90;26.50;;;11.10;99.90;;;;;;4954491;29;20028;-68
2022/11/04 05:49:48;;;;;;;40.15;25.25;;;11.10;99.90;;;;;;4938702;29;20540;-69
2022/11/04 05:52:14;;;;;;;44.80;23.10;;;11.10;99.90;;;;;;4956249;29;20487;-69
2022/11/04 05:54:40;;;;;;;38.80;25.17;;;11.20;99.90;;;;;;4955927;29;20027;-69
2022/11/04 05:57:05;;;;;;;38.95;23.10;;;11.20;99.90;;;;;;4938773;29;20027;-69
2022/11/04 05:59:31;;;;;;;37.17;23.23;;;11.20;99.90;;;;;;4955527;29;20043;-70
2022/11/04 06:01:56;;;;;;;41.92;26.83;;;11.20;99.90;;;;;;4938646;29;20023;-69
2022/11/04 06:04:22;;;;;;;48.28;27.77;;;11.10;99.90;;;;;;4955721;29;20023;-69
2022/11/04 06:06:48;;;;;;;53.35;28.63;;;11.20;99.90;;;;;;4955851;29;20058;-69
2022/11/04 06:09:13;;;;;;;51.50;30.35;;;11.10;99.90;;;;;;4956579;28;20035;-69
2022/11/04 06:11:39;;;;;;;48.38;28.67;;;11.10;99.90;;;;;;4957466;29;20467;-69
2022/11/04 06:14:05;;;;;;;43.60;27.20;;;11.10;99.90;;;;;;4956970;29;20110;-69
2022/11/04 06:16:31;;;;;;;52.90;30.50;;;11.00;99.90;;;;;;4939584;29;20369;-69
2022/11/04 06:18:56;;;;;;;43.08;26.50;;;11.00;99.90;;;;;;4955828;29;20027;-69
2022/11/04 06:21:32;;;;;;;51.75;28.23;;;11.00;99.90;;;;;;4939087;29;20042;-68
2022/11/04 06:23:58;;;;;;;43.40;26.27;;;11.00;99.90;;;;;;4938585;29;20384;-68
2022/11/04 06:26:26;;;;;;;44.95;26.38;;;11.00;99.90;;;;;;4955214;29;20431;-68
2022/11/04 06:28:52;;;;;;;48.97;26.20;;;11.00;99.90;;;;;;4938572;29;20091;-68
2022/11/04 06:31:18;;;;;;;46.83;26.25;;;11.00;99.90;;;;;;4955507;29;20054;-68
2022/11/04 06:33:44;;;;;;;48.45;28.45;;;11.00;99.90;;;;;;4955247;29;20027;-67
2022/11/04 06:36:12;;;;;;;50.80;28.20;;;11.00;99.90;;;;;;4955389;29;20031;-67
2022/11/04 06:38:38;;;;;;;51.42;28.38;;;11.00;99.90;;;;;;4938413;29;20067;-67
2022/11/04 06:41:06;;;;;;;53.38;28.50;;;11.00;99.90;;;;;;4955626;29;20424;-67
2022/11/04 06:43:32;;;;;;;48.17;28.23;;;11.00;99.90;;;;;;4955304;29;20066;-66
2022/11/04 06:45:59;;;;;;;50.65;28.08;;;11.00;99.90;;;;;;4955607;29;20058;-65
2022/11/04 06:48:26;;;;;;;39.85;22.23;;;11.00;99.90;;;;;;4954926;29;20368;-67
2022/11/04 06:50:52;;;;;;;42.58;21.95;;;11.00;99.90;;;;;;4955372;29;20055;-66
2022/11/04 06:53:17;;;;;;;33.25;17.88;;;11.00;99.90;;;;;;4938128;29;20543;-67
2022/11/04 06:55:44;;;;;;;28.85;17.98;;;11.00;99.90;;;;;;4955078;29;20106;-67
2022/11/04 06:58:10;;;;;;;32.05;14.52;;;11.00;99.90;;;;;;4955314;29;20454;-67
2022/11/04 07:00:35;;;;;;;22.48;15.60;;;11.10;99.90;;;;;;4938124;29;20058;-67
2022/11/04 07:03:01;;;;;;;20.50;12.50;;;11.10;99.90;;;;;;4938395;29;20028;-67
2022/11/04 07:05:27;;;;;;;19.10;11.23;;;11.10;99.90;;;;;;4938149;29;20114;-68
2022/11/04 07:07:52;;;;;;;19.67;10.95;;;11.10;99.90;;;;;;4938321;29;20036;-67
2022/11/04 07:10:18;;;;;;;18.45;10.85;;;11.10;99.90;;;;;;4956085;29;20460;-67
2022/11/04 07:12:44;;;;;;;21.00;12.18;;;11.10;99.90;;;;;;4954909;29;20031;-67
2022/11/04 07:15:10;;;;;;;20.77;11.75;;;11.20;99.90;;;;;;4955516;29;20034;-67
2022/11/04 07:17:36;;;;;;;20.75;13.40;;;11.20;99.90;;;;;;4955340;29;20031;-67
2022/11/04 07:20:02;;;;;;;28.40;14.57;;;11.20;99.90;;;;;;4939495;29;20035;-67
2022/11/04 07:22:27;;;;;;;29.33;15.10;;;11.30;99.90;;;;;;4941503;29;20075;-67
2022/11/04 07:24:53;;;;;;;20.48;12.90;;;11.30;99.90;;;;;;4958617;29;20023;-67
2022/11/04 07:27:18;;;;;;;22.70;13.15;;;11.30;99.90;;;;;;4941445;29;20027;-67
2022/11/04 07:29:44;;;;;;;19.27;11.15;;;11.30;99.90;;;;;;4958503;29;20086;-67
2022/11/04 07:32:10;;;;;;;16.25;11.48;;;11.30;99.90;;;;;;4941250;29;20098;-67
2022/11/04 07:34:35;;;;;;;24.55;13.93;;;11.30;99.90;;;;;;4941176;29;20526;-67
2022/11/04 07:37:01;;;;;;;25.38;14.40;;;11.30;99.90;;;;;;4941198;29;20460;-67
2022/11/04 07:39:27;;;;;;;20.08;12.48;;;11.40;99.90;;;;;;4940982;29;20034;-67
2022/11/04 07:41:52;;;;;;;20.70;11.00;;;11.40;99.90;;;;;;4958424;29;20031;-67
2022/11/04 07:44:18;;;;;;;22.00;11.00;;;11.40;99.90;;;;;;4958482;29;20054;-67
2022/11/04 07:46:43;;;;;;;23.35;13.35;;;11.40;99.90;;;;;;4958456;29;20368;-67
2022/11/04 07:49:10;;;;;;;16.45;9.48;;;11.40;99.90;;;;;;4958334;29;20479;-67
2022/11/04 07:51:35;;;;;;;15.27;10.15;;;11.40;99.90;;;;;;4940970;29;20030;-67
2022/11/04 07:54:01;;;;;;;14.18;7.00;;;11.50;99.90;;;;;;4958148;29;20027;-67
2022/11/04 07:56:26;;;;;;;12.18;7.00;;;11.40;99.90;;;;;;4958057;29;20482;-67
2022/11/04 07:58:52;;;;;;;11.07;7.65;;;11.40;99.90;;;;;;4941220;29;20109;-68
2022/11/04 08:01:22;;;;;;;10.02;5.95;;;11.40;99.90;;;;;;4941363;29;20032;-68
2022/11/04 08:03:49;;;;;;;13.10;7.47;;;11.40;99.90;;;;;;4958449;29;20023;-67
2022/11/04 08:06:17;;;;;;;12.25;6.25;;;11.40;99.90;;;;;;4958079;29;20078;-68
2022/11/04 08:08:43;;;;;;;13.63;7.93;;;11.40;99.90;;;;;;4940460;29;20112;-68
2022/11/04 08:11:17;;;;;;;13.00;8.13;;;11.40;99.90;;;;;;4957834;29;20106;-68
2022/11/04 08:13:44;;;;;;;13.75;8.93;;;11.50;99.90;;;;;;4940765;29;20522;-68
2022/11/04 08:16:22;;;;;;;12.55;7.88;;;11.50;99.90;;;;;;4940458;29;20032;-68
2022/11/04 08:18:50;;;;;;;11.77;8.68;;;11.60;99.90;;;;;;4957703;29;20090;-69
2022/11/04 08:21:16;;;;;;;15.93;10.73;;;11.60;99.90;;;;;;4957627;29;20118;-69
2022/11/04 08:23:42;;;;;;;18.95;10.27;;;11.60;99.90;;;;;;4957623;29;20039;-69
2022/11/04 08:26:10;;;;;;;27.77;12.70;;;11.70;99.90;;;;;;4957634;29;20023;-69
2022/11/04 08:28:36;;;;;;;16.25;8.75;;;11.70;99.90;;;;;;4957485;29;20031;-69
2022/11/04 08:31:09;;;;;;;15.32;9.10;;;11.70;99.90;;;;;;4956423;28;20031;-69
2022/11/04 08:33:35;;;;;;;12.18;8.02;;;11.70;99.90;;;;;;4940157;29;20023;-69
2022/11/04 08:36:11;;;;;;;13.43;6.95;;;11.80;99.90;;;;;;4940088;29;20031;-69
2022/11/04 08:38:37;;;;;;;13.70;7.80;;;11.80;99.90;;;;;;4940250;29;20415;-69
2022/11/04 08:41:05;;;;;;;16.88;10.77;;;11.70;99.90;;;;;;4957208;29;20027;-69
2022/11/04 08:43:32;;;;;;;16.65;10.10;;;11.70;99.90;;;;;;4957786;29;20035;-70
2022/11/04 08:45:58;;;;;;;18.95;10.65;;;11.60;99.90;;;;;;4957531;29;20096;-70
2022/11/04 08:48:24;;;;;;;16.73;8.90;;;11.60;99.90;;;;;;4939622;29;20036;-70
2022/11/04 08:50:52;;;;;;;9.50;4.15;;;11.60;99.90;;;;;;4957512;29;20118;-70
2022/11/04 08:53:18;;;;;;;9.63;5.53;;;11.40;99.90;;;;;;4940167;29;20031;-71
2022/11/04 08:55:44;;;;;;;9.27;5.30;;;11.40;99.90;;;;;;4956932;29;20038;-71
2022/11/04 08:58:09;;;;;;;14.15;5.95;;;11.50;99.90;;;;;;4956758;29;20494;-71
2022/11/04 09:00:35;;;;;;;10.57;5.50;;;11.50;99.90;;;;;;4956856;29;20023;-71
2022/11/04 09:03:01;;;;;;;8.23;4.85;;;11.50;99.90;;;;;;4956862;29;20028;-71
2022/11/04 09:05:27;;;;;;;8.75;4.68;;;11.60;99.90;;;;;;4956773;29;20486;-71
2022/11/04 09:07:54;;;;;;;7.30;3.92;;;11.50;99.90;;;;;;4939452;29;20131;-71
2022/11/04 09:10:19;;;;;;;7.20;4.75;;;11.40;99.90;;;;;;4956506;29;20031;-71
2022/11/04 09:12:45;;;;;;;10.48;5.38;;;11.40;99.90;;;;;;4939520;29;20534;-71
2022/11/04 09:15:11;;;;;;;12.63;6.25;;;11.40;99.90;;;;;;4939430;29;20360;-71
2022/11/04 09:17:37;;;;;;;15.50;7.15;;;11.50;99.90;;;;;;4939222;29;20109;-71
2022/11/04 09:20:04;;;;;;;17.10;9.23;;;11.50;99.90;;;;;;4956549;29;20030;-71
2022/11/04 09:22:30;;;;;;;31.63;16.27;;;11.60;99.90;;;;;;4939131;29;20053;-71
2022/11/04 09:24:56;;;;;;;38.70;20.40;;;11.60;99.90;;;;;;4956538;29;20455;-71
2022/11/04 09:27:22;;;;;;;42.75;22.33;;;11.60;99.90;;;;;;4939185;29;20028;-71
2022/11/04 09:29:48;;;;;;;29.88;15.25;;;11.60;99.90;;;;;;4938849;29;20471;-71
2022/11/04 09:32:13;;;;;;;33.85;17.00;;;11.70;99.90;;;;;;4939125;29;20118;-71
2022/11/04 09:34:39;;;;;;;29.75;16.25;;;11.70;99.90;;;;;;4956031;29;20484;-71
2022/11/04 09:37:05;;;;;;;28.73;14.77;;;11.70;99.90;;;;;;4939048;29;20518;-71
2022/11/04 09:39:30;;;;;;;29.25;15.23;;;11.70;99.90;;;;;;4938913;29;20062;-71
2022/11/04 09:42:09;;;;;;;27.30;14.90;;;11.70;99.90;;;;;;4955914;28;20031;-71
2022/11/04 09:44:58;;;;;;;34.55;17.25;;;11.60;99.90;;;;;;4956113;29;20034;-70
2022/11/04 09:47:24;;;;;;;28.73;16.70;;;11.70;99.90;;;;;;4956238;29;20126;-70
2022/11/04 09:49:53;;;;;;;43.88;22.65;;;11.60;99.90;;;;;;4938210;29;20051;-70
2022/11/04 09:52:36;;;;;;;51.83;27.48;;;11.60;99.90;;;;;;4956133;29;20043;-70
2022/11/04 09:55:24;;;;;;;49.17;27.48;;;11.60;99.90;;;;;;4939030;29;20031;-71
2022/11/04 09:57:57;;;;;;;55.58;30.45;;;11.50;99.90;;;;;;4939056;29;20137;-70
2022/11/04 10:00:24;;;;;;;49.60;27.92;;;11.40;99.90;;;;;;4938532;29;20046;-70
2022/11/04 10:03:02;;;;;;;52.33;28.70;;;11.40;99.90;;;;;;4938775;29;20031;-71
2022/11/04 10:05:51;;;;;;;52.45;28.67;;;11.30;99.90;;;;;;4956220;29;20063;-71
2022/11/04 10:08:41;;;;;;;55.97;29.88;;;11.30;99.90;;;;;;4955878;29;20038;-71
2022/11/04 10:11:23;;;;;;;56.90;28.65;;;11.40;99.90;;;;;;4955508;29;20538;-71
2022/11/04 10:14:09;;;;;;;47.63;26.00;;;11.40;99.90;;;;;;4938768;29;20035;-70
2022/11/04 10:16:55;;;;;;;14.18;8.98;;;11.50;99.90;;;;;;4938113;29;20027;-70
2022/11/04 10:19:37;;;;;;;12.52;8.13;;;11.60;99.90;;;;;;4955361;29;20028;-70
2022/11/04 10:22:21;;;;;;;5.68;3.15;;;11.40;99.90;;;;;;4939043;29;20070;-70
2022/11/04 10:25:19;;;;;;;1.45;1.23;;;11.30;99.90;;;;;;4955681;29;20035;-71
2022/11/04 10:27:47;;;;;;;4.43;1.35;;;11.20;99.90;;;;;;4935401;29;20392;-71
2022/11/04 10:30:23;;;;;;;2.03;1.40;;;11.10;99.90;;;;;;4954353;29;20062;-70
2022/11/04 10:33:16;;;;;;;2.45;1.23;;;11.00;99.90;;;;;;4955401;29;20387;-71
2022/11/04 10:35:48;;;;;;;2.67;1.30;;;11.00;99.90;;;;;;4955660;29;20031;-70
2022/11/04 10:38:39;;;;;;;2.83;1.40;;;10.90;99.90;;;;;;4955486;29;20463;-70
2022/11/04 10:41:23;;;;;;;4.07;1.30;;;10.90;99.90;;;;;;4955638;29;20043;-70
2022/11/04 10:44:03;;;;;;;2.42;1.40;;;10.90;99.90;;;;;;4955521;29;20036;-70
2022/11/04 10:46:43;;;;;;;3.90;1.15;;;10.90;99.90;;;;;;4955446;29;20034;-70
2022/11/04 10:49:34;;;;;;;1.48;0.80;;;10.80;99.90;;;;;;4937980;29;20452;-69
2022/11/04 10:52:00;;;;;;;2.47;1.10;;;10.70;99.90;;;;;;4938595;29;20455;-69
2022/11/04 10:54:26;;;;;;;2.28;1.10;;;10.70;99.90;;;;;;4939049;29;20027;-69
2022/11/04 10:56:54;;;;;;;1.98;0.80;;;10.60;99.90;;;;;;4942070;29;20030;-69
2022/11/04 10:59:46;;;;;;;2.00;0.88;;;10.60;99.90;;;;;;4941558;29;20038;-68
2022/11/04 11:02:11;;;;;;;1.58;0.88;;;10.60;99.90;;;;;;4958881;29;20035;-69
2022/11/04 11:04:39;;;;;;;1.95;1.10;;;10.60;99.90;;;;;;4941797;29;20085;-69
2022/11/04 11:07:10;;;;;;;0.60;0.60;;;10.60;99.90;;;;;;4942118;29;20423;-69
2022/11/04 11:09:55;;;;;;;2.45;1.13;;;10.60;99.90;;;;;;4941451;29;20039;-69
2022/11/04 11:12:29;;;;;;;1.85;0.82;;;10.60;99.90;;;;;;4958981;29;20514;-68
2022/11/04 11:14:56;;;;;;;1.20;0.60;;;10.70;99.90;;;;;;4958850;29;20530;-68
2022/11/04 11:17:36;;;;;;;0.80;0.30;;;10.80;99.90;;;;;;4959005;29;20464;-69
2022/11/04 11:20:23;;;;;;;2.22;0.50;;;10.70;99.90;;;;;;4958752;29;20035;-69
2022/11/04 11:22:53;;;;;;;0.43;0.40;;;10.70;99.90;;;;;;4958781;29;20027;-68
2022/11/04 11:25:23;;;;;;;2.03;0.73;;;10.60;99.90;;;;;;4941802;29;20050;-68
2022/11/04 11:27:57;;;;;;;4.55;1.02;;;10.70;99.90;;;;;;4941210;29;20031;-68
2022/11/04 11:30:35;;;;;;;2.13;0.95;;;10.80;99.90;;;;;;4958562;29;20038;-68
2022/11/04 11:33:07;;;;;;;0.82;0.50;;;10.80;99.90;;;;;;4958600;29;20027;-68
2022/11/04 11:35:40;;;;;;;0.57;0.40;;;10.80;99.90;;;;;;4941356;29;20023;-68
2022/11/04 11:38:17;;;;;;;0.80;0.40;;;10.80;99.90;;;;;;4940907;29;20075;-68
2022/11/04 11:40:44;;;;;;;1.33;0.50;;;10.80;99.90;;;;;;4958713;29;20039;-68
2022/11/04 11:43:29;;;;;;;2.25;0.90;;;10.80;99.90;;;;;;4941133;29;20035;-67
2022/11/04 11:45:58;;;;;;;1.67;0.52;;;10.80;99.90;;;;;;4941155;29;20074;-68
2022/11/04 11:48:38;;;;;;;0.88;0.50;;;10.70;99.90;;;;;;4940893;29;20542;-69
2022/11/04 11:51:05;;;;;;;1.42;0.73;;;10.70;99.90;;;;;;4958248;29;20059;-68
2022/11/04 11:53:34;;;;;;;2.70;0.93;;;10.70;99.90;;;;;;4958267;29;20083;-68
2022/11/04 11:55:59;;;;;;;1.48;0.80;;;10.60;99.90;;;;;;4940987;29;20507;-68
2022/11/04 11:58:40;;;;;;;1.92;0.60;;;10.60;99.90;;;;;;4958129;29;20027;-68
2022/11/04 12:01:28;;;;;;;3.15;1.38;;;10.60;99.90;;;;;;4958416;29;20027;-68
2022/11/04 12:03:54;;;;;;;1.35;0.88;;;10.50;99.90;;;;;;4940572;29;20028;-69
2022/11/04 12:06:29;;;;;;;2.28;0.93;;;10.50;99.90;;;;;;4957859;28;20039;-70
2022/11/04 12:09:16;;;;;;;1.05;0.77;;;10.50;99.90;;;;;;4958292;29;20169;-69
2022/11/04 12:11:53;;;;;;;3.05;0.80;;;10.40;99.90;;;;;;4957710;29;20490;-69
2022/11/04 12:14:19;;;;;;;1.35;0.98;;;10.50;99.90;;;;;;4957554;29;20075;-68
2022/11/04 12:16:59;;;;;;;3.20;0.95;;;10.50;99.90;;;;;;4957810;29;20027;-68
2022/11/04 12:19:31;;;;;;;1.98;0.90;;;10.50;99.90;;;;;;4940848;29;20027;-68
2022/11/04 12:22:11;;;;;;;2.63;0.75;;;10.60;99.90;;;;;;4957678;29;20035;-69
2022/11/04 12:25:03;;;;;;;1.08;0.90;;;10.50;99.90;;;;;;4940411;29;20029;-69
2022/11/04 12:27:49;;;;;;;2.30;0.70;;;10.50;99.90;;;;;;4940224;29;20027;-68
2022/11/04 12:30:19;;;;;;;2.00;0.65;;;10.50;99.90;;;;;;4957576;29;20024;-69
2022/11/04 12:33:06;;;;;;;1.35;0.70;;;10.40;99.90;;;;;;4940206;29;20115;-68
2022/11/04 12:35:38;;;;;;;3.47;1.80;;;10.50;99.90;;;;;;4957497;29;20032;-68
2022/11/04 12:38:37;;;;;;;1.52;0.50;;;10.50;99.90;;;;;;4957368;29;20074;-68
2022/11/04 12:41:12;;;;;;;0.98;0.47;;;10.40;99.90;;;;;;4957090;29;20035;-68
2022/11/04 12:43:44;;;;;;;2.75;0.60;;;10.30;99.90;;;;;;4957108;29;20031;-68
2022/11/04 12:46:20;;;;;;;1.83;0.73;;;10.30;99.90;;;;;;4957267;29;20035;-68
2022/11/04 12:49:19;;;;;;;1.10;0.60;;;10.20;99.90;;;;;;4939689;29;20051;-68
2022/11/04 12:52:11;;;;;;;0.52;0.50;;;10.20;99.90;;;;;;4956908;29;20082;-68
2022/11/04 12:54:46;;;;;;;0.63;0.50;;;10.20;99.90;;;;;;4927150;29;20074;-68
2022/11/04 12:57:30;;;;;;;1.98;0.63;;;10.20;99.90;;;;;;4956894;29;20034;-68
2022/11/04 13:00:05;;;;;;;4.43;0.88;;;10.20;99.90;;;;;;4940075;29;20070;-69
2022/11/04 13:02:53;;;;;;;1.45;0.60;;;10.20;99.90;;;;;;4957165;29;20030;-68
2022/11/04 13:05:50;;;;;;;1.95;0.90;;;10.10;99.90;;;;;;4939910;29;20027;-69
2022/11/04 13:08:31;;;;;;;1.63;0.98;;;10.10;99.90;;;;;;4940058;29;20039;-69
2022/11/04 13:11:00;;;;;;;1.92;1.00;;;10.10;99.90;;;;;;4940035;29;20029;-69
2022/11/04 13:13:38;;;;;;;0.65;0.60;;;10.10;99.90;;;;;;4957569;29;20039;-69
2022/11/04 13:16:10;;;;;;;0.60;0.60;;;10.10;99.90;;;;;;4940704;29;20039;-69
2022/11/04 13:18:39;;;;;;;2.50;0.60;;;10.10;99.90;;;;;;4956994;28;20038;-68
2022/11/04 13:21:11;;;;;;;0.63;0.43;;;10.00;99.90;;;;;;4940554;29;20035;-69
2022/11/04 13:23:56;;;;;;;0.98;0.75;;;10.00;99.90;;;;;;4957903;29;20082;-68
2022/11/04 13:26:22;;;;;;;1.02;0.50;;;9.90;99.90;;;;;;4940975;29;20027;-68